sensor_id;sensor_type;location;lat;lon;timestamp;temperature;humidity
45435;DHT22;31183;47.404;8.500;2023-02-24T00:01:46;9.40;91.00
45435;DHT22;31183;47.404;8.500;2023-02-24T00:04:18;9.30;91.20
45435;DHT22;31183;47.404;8.500;2023-02-24T00:06:45;9.30;91.40
45435;DHT22;31183;47.404;8.500;2023-02-24T00:09:14;9.20;91.50
45435;DHT22;31183;47.404;8.500;2023-02-24T00:11:47;9.20;91.50
45435;DHT22;31183;47.404;8.500;2023-02-24T00:14:15;9.10;91.50
45435;DHT22;31183;47.404;8.500;2023-02-24T00:16:42;9.00;91.70
45435;DHT22;31183;47.404;8.500;2023-02-24T00:19:13;9.00;91.80
45435;DHT22;31183;47.404;8.500;2023-02-24T00:21:40;8.90;92.10
45435;DHT22;31183;47.404;8.500;2023-02-24T00:24:06;8.90;92.10
45435;DHT22;31183;47.404;8.500;2023-02-24T00:26:33;8.90;92.20
45435;DHT22;31183;47.404;8.500;2023-02-24T00:29:03;8.90;92.20
45435;DHT22;31183;47.404;8.500;2023-02-24T00:31:30;8.80;92.20
45435;DHT22;31183;47.404;8.500;2023-02-24T00:33:58;8.80;92.20
45435;DHT22;31183;47.404;8.500;2023-02-24T00:36:27;8.80;92.40
45435;DHT22;31183;47.404;8.500;2023-02-24T00:38:57;8.80;92.50
45435;DHT22;31183;47.404;8.500;2023-02-24T00:41:27;8.70;92.50
45435;DHT22;31183;47.404;8.500;2023-02-24T00:43:59;8.70;92.50
45435;DHT22;31183;47.404;8.500;2023-02-24T00:46:42;8.80;92.20
45435;DHT22;31183;47.404;8.500;2023-02-24T00:49:15;8.80;92.20
45435;DHT22;31183;47.404;8.500;2023-02-24T00:51:47;8.70;92.10
45435;DHT22;31183;47.404;8.500;2023-02-24T00:54:15;8.70;92.30
45435;DHT22;31183;47.404;8.500;2023-02-24T00:56:43;8.70;92.30
45435;DHT22;31183;47.404;8.500;2023-02-24T00:59:12;8.70;92.30
45435;DHT22;31183;47.404;8.500;2023-02-24T01:01:39;8.80;92.10
45435;DHT22;31183;47.404;8.500;2023-02-24T01:04:07;8.80;92.00
45435;DHT22;31183;47.404;8.500;2023-02-24T01:06:49;8.90;91.90
45435;DHT22;31183;47.404;8.500;2023-02-24T01:09:19;8.80;91.90
45435;DHT22;31183;47.404;8.500;2023-02-24T01:11:47;8.70;92.00
45435;DHT22;31183;47.404;8.500;2023-02-24T01:14:34;8.70;92.20
45435;DHT22;31183;47.404;8.500;2023-02-24T01:17:02;8.70;92.40
45435;DHT22;31183;47.404;8.500;2023-02-24T01:19:32;8.60;92.60
45435;DHT22;31183;47.404;8.500;2023-02-24T01:22:01;8.60;92.80
45435;DHT22;31183;47.404;8.500;2023-02-24T01:24:31;8.60;92.90
45435;DHT22;31183;47.404;8.500;2023-02-24T01:26:58;8.60;92.90
45435;DHT22;31183;47.404;8.500;2023-02-24T01:29:24;8.60;92.70
45435;DHT22;31183;47.404;8.500;2023-02-24T01:31:51;8.70;92.40
45435;DHT22;31183;47.404;8.500;2023-02-24T01:34:24;8.70;92.20
45435;DHT22;31183;47.404;8.500;2023-02-24T01:36:51;8.70;92.00
45435;DHT22;31183;47.404;8.500;2023-02-24T01:39:18;8.60;92.20
45435;DHT22;31183;47.404;8.500;2023-02-24T01:41:46;8.50;92.30
45435;DHT22;31183;47.404;8.500;2023-02-24T01:46:49;8.50;92.40
45435;DHT22;31183;47.404;8.500;2023-02-24T01:49:38;8.50;92.30
45435;DHT22;31183;47.404;8.500;2023-02-24T01:52:16;8.50;92.30
45435;DHT22;31183;47.404;8.500;2023-02-24T01:54:54;8.50;92.50
45435;DHT22;31183;47.404;8.500;2023-02-24T01:57:23;8.50;92.10
45435;DHT22;31183;47.404;8.500;2023-02-24T01:59:52;8.40;92.00
45435;DHT22;31183;47.404;8.500;2023-02-24T02:02:21;8.40;92.10
45435;DHT22;31183;47.404;8.500;2023-02-24T02:04:57;8.50;92.30
45435;DHT22;31183;47.404;8.500;2023-02-24T02:07:27;8.50;92.00
45435;DHT22;31183;47.404;8.500;2023-02-24T02:09:56;8.50;92.00
45435;DHT22;31183;47.404;8.500;2023-02-24T02:12:26;8.40;92.20
45435;DHT22;31183;47.404;8.500;2023-02-24T02:14:54;8.40;92.30
45435;DHT22;31183;47.404;8.500;2023-02-24T02:17:35;8.40;92.20
45435;DHT22;31183;47.404;8.500;2023-02-24T02:34:27;8.60;92.10
45435;DHT22;31183;47.404;8.500;2023-02-24T02:37:07;8.50;92.20
45435;DHT22;31183;47.404;8.500;2023-02-24T02:39:50;8.40;92.30
45435;DHT22;31183;47.404;8.500;2023-02-24T02:42:28;8.40;92.20
45435;DHT22;31183;47.404;8.500;2023-02-24T02:45:05;8.40;92.10
45435;DHT22;31183;47.404;8.500;2023-02-24T02:47:46;8.30;92.10
45435;DHT22;31183;47.404;8.500;2023-02-24T02:51:05;8.30;92.30
45435;DHT22;31183;47.404;8.500;2023-02-24T02:53:14;8.20;92.20
45435;DHT22;31183;47.404;8.500;2023-02-24T02:55:47;8.20;92.40
45435;DHT22;31183;47.404;8.500;2023-02-24T02:58:23;8.20;92.30
45435;DHT22;31183;47.404;8.500;2023-02-24T03:00:54;8.20;92.50
45435;DHT22;31183;47.404;8.500;2023-02-24T03:03:31;8.30;92.80
45435;DHT22;31183;47.404;8.500;2023-02-24T03:06:03;8.40;92.70
45435;DHT22;31183;47.404;8.500;2023-02-24T03:08:35;8.40;92.80
45435;DHT22;31183;47.404;8.500;2023-02-24T03:11:04;8.40;92.80
45435;DHT22;31183;47.404;8.500;2023-02-24T03:13:37;8.40;92.90
45435;DHT22;31183;47.404;8.500;2023-02-24T03:16:08;8.40;92.90
45435;DHT22;31183;47.404;8.500;2023-02-24T03:18:43;8.40;92.80
45435;DHT22;31183;47.404;8.500;2023-02-24T03:21:25;8.40;92.90
45435;DHT22;31183;47.404;8.500;2023-02-24T03:23:54;8.40;92.90
45435;DHT22;31183;47.404;8.500;2023-02-24T03:26:30;8.50;92.90
45435;DHT22;31183;47.404;8.500;2023-02-24T03:29:27;8.50;92.80
45435;DHT22;31183;47.404;8.500;2023-02-24T03:34:45;8.50;92.50
45435;DHT22;31183;47.404;8.500;2023-02-24T03:37:14;8.50;92.60
45435;DHT22;31183;47.404;8.500;2023-02-24T03:39:41;8.40;92.60
45435;DHT22;31183;47.404;8.500;2023-02-24T03:42:17;8.40;92.70
45435;DHT22;31183;47.404;8.500;2023-02-24T03:44:44;8.40;92.80
45435;DHT22;31183;47.404;8.500;2023-02-24T03:47:12;8.30;92.70
45435;DHT22;31183;47.404;8.500;2023-02-24T03:49:41;8.40;92.60
45435;DHT22;31183;47.404;8.500;2023-02-24T03:52:41;8.30;92.70
45435;DHT22;31183;47.404;8.500;2023-02-24T03:58:15;8.20;92.60
45435;DHT22;31183;47.404;8.500;2023-02-24T04:03:43;8.20;92.50
45435;DHT22;31183;47.404;8.500;2023-02-24T04:06:26;8.20;92.60
45435;DHT22;31183;47.404;8.500;2023-02-24T04:11:35;8.30;92.80
45435;DHT22;31183;47.404;8.500;2023-02-24T04:14:11;8.30;92.90
45435;DHT22;31183;47.404;8.500;2023-02-24T04:19:13;8.40;92.60
45435;DHT22;31183;47.404;8.500;2023-02-24T04:21:42;8.40;92.70
45435;DHT22;31183;47.404;8.500;2023-02-24T04:24:12;8.40;92.70
45435;DHT22;31183;47.404;8.500;2023-02-24T04:26:43;8.40;92.60
45435;DHT22;31183;47.404;8.500;2023-02-24T04:29:14;8.30;92.80
45435;DHT22;31183;47.404;8.500;2023-02-24T04:31:52;8.20;92.80
45435;DHT22;31183;47.404;8.500;2023-02-24T04:34:21;8.10;92.90
45435;DHT22;31183;47.404;8.500;2023-02-24T04:36:49;8.00;93.10
45435;DHT22;31183;47.404;8.500;2023-02-24T04:39:17;8.00;93.20
45435;DHT22;31183;47.404;8.500;2023-02-24T04:41:47;8.00;93.30
45435;DHT22;31183;47.404;8.500;2023-02-24T04:44:15;8.00;93.30
45435;DHT22;31183;47.404;8.500;2023-02-24T04:46:44;8.00;93.40
45435;DHT22;31183;47.404;8.500;2023-02-24T04:49:11;8.10;93.70
45435;DHT22;31183;47.404;8.500;2023-02-24T04:51:38;8.10;93.50
45435;DHT22;31183;47.404;8.500;2023-02-24T04:54:12;8.10;93.50
45435;DHT22;31183;47.404;8.500;2023-02-24T04:56:47;8.10;93.60
45435;DHT22;31183;47.404;8.500;2023-02-24T04:59:17;8.10;93.50
45435;DHT22;31183;47.404;8.500;2023-02-24T05:01:44;8.10;93.60
45435;DHT22;31183;47.404;8.500;2023-02-24T05:04:12;8.20;93.40
45435;DHT22;31183;47.404;8.500;2023-02-24T05:06:40;8.20;93.20
45435;DHT22;31183;47.404;8.500;2023-02-24T05:09:18;8.20;93.10
45435;DHT22;31183;47.404;8.500;2023-02-24T05:11:47;8.10;92.90
45435;DHT22;31183;47.404;8.500;2023-02-24T05:14:15;8.10;93.00
45435;DHT22;31183;47.404;8.500;2023-02-24T05:16:45;8.10;93.10
45435;DHT22;31183;47.404;8.500;2023-02-24T05:19:15;8.10;93.10
45435;DHT22;31183;47.404;8.500;2023-02-24T05:22:01;8.10;93.00
45435;DHT22;31183;47.404;8.500;2023-02-24T05:24:32;8.00;93.50
45435;DHT22;31183;47.404;8.500;2023-02-24T05:27:00;8.00;93.50
45435;DHT22;31183;47.404;8.500;2023-02-24T05:29:32;7.90;93.60
45435;DHT22;31183;47.404;8.500;2023-02-24T05:32:00;7.90;93.60
45435;DHT22;31183;47.404;8.500;2023-02-24T05:34:30;7.80;93.60
45435;DHT22;31183;47.404;8.500;2023-02-24T05:36:58;7.80;93.70
45435;DHT22;31183;47.404;8.500;2023-02-24T05:39:24;7.80;93.70
45435;DHT22;31183;47.404;8.500;2023-02-24T05:41:54;7.80;93.70
45435;DHT22;31183;47.404;8.500;2023-02-24T05:44:24;7.80;93.70
45435;DHT22;31183;47.404;8.500;2023-02-24T05:46:54;7.80;93.80
45435;DHT22;31183;47.404;8.500;2023-02-24T05:49:31;7.80;93.80
45435;DHT22;31183;47.404;8.500;2023-02-24T05:52:02;7.70;93.80
45435;DHT22;31183;47.404;8.500;2023-02-24T05:54:35;7.80;93.90
45435;DHT22;31183;47.404;8.500;2023-02-24T05:57:08;7.70;93.90
45435;DHT22;31183;47.404;8.500;2023-02-24T05:59:38;7.70;93.80
45435;DHT22;31183;47.404;8.500;2023-02-24T06:02:07;7.70;93.80
45435;DHT22;31183;47.404;8.500;2023-02-24T06:04:36;7.70;93.80
45435;DHT22;31183;47.404;8.500;2023-02-24T06:07:11;7.70;93.70
45435;DHT22;31183;47.404;8.500;2023-02-24T06:09:48;7.70;93.80
45435;DHT22;31183;47.404;8.500;2023-02-24T06:12:17;7.60;93.80
45435;DHT22;31183;47.404;8.500;2023-02-24T06:14:44;7.60;93.70
45435;DHT22;31183;47.404;8.500;2023-02-24T06:17:11;7.70;93.60
45435;DHT22;31183;47.404;8.500;2023-02-24T06:19:37;7.60;93.40
45435;DHT22;31183;47.404;8.500;2023-02-24T06:22:06;7.60;93.40
45435;DHT22;31183;47.404;8.500;2023-02-24T06:24:37;7.60;93.30
45435;DHT22;31183;47.404;8.500;2023-02-24T06:27:04;7.60;93.40
45435;DHT22;31183;47.404;8.500;2023-02-24T06:29:36;7.60;93.60
45435;DHT22;31183;47.404;8.500;2023-02-24T06:32:03;7.60;93.80
45435;DHT22;31183;47.404;8.500;2023-02-24T06:34:37;7.70;93.80
45435;DHT22;31183;47.404;8.500;2023-02-24T06:37:05;7.80;94.00
45435;DHT22;31183;47.404;8.500;2023-02-24T06:39:32;7.80;93.80
45435;DHT22;31183;47.404;8.500;2023-02-24T06:42:03;7.80;93.80
45435;DHT22;31183;47.404;8.500;2023-02-24T06:44:31;8.00;93.80
45435;DHT22;31183;47.404;8.500;2023-02-24T06:46:59;8.00;93.50
45435;DHT22;31183;47.404;8.500;2023-02-24T06:49:26;8.00;93.50
45435;DHT22;31183;47.404;8.500;2023-02-24T06:51:54;8.00;93.60
45435;DHT22;31183;47.404;8.500;2023-02-24T06:54:22;8.00;93.70
45435;DHT22;31183;47.404;8.500;2023-02-24T06:56:49;8.00;93.70
45435;DHT22;31183;47.404;8.500;2023-02-24T06:59:15;8.10;93.80
45435;DHT22;31183;47.404;8.500;2023-02-24T07:01:49;8.20;93.60
45435;DHT22;31183;47.404;8.500;2023-02-24T07:04:16;8.20;93.40
45435;DHT22;31183;47.404;8.500;2023-02-24T07:06:48;8.30;93.40
45435;DHT22;31183;47.404;8.500;2023-02-24T07:09:24;8.30;93.50
45435;DHT22;31183;47.404;8.500;2023-02-24T07:11:52;8.30;93.40
45435;DHT22;31183;47.404;8.500;2023-02-24T07:14:21;8.40;93.20
45435;DHT22;31183;47.404;8.500;2023-02-24T07:16:48;8.40;93.10
45435;DHT22;31183;47.404;8.500;2023-02-24T07:19:22;8.40;93.10
45435;DHT22;31183;47.404;8.500;2023-02-24T07:21:49;8.40;93.20
45435;DHT22;31183;47.404;8.500;2023-02-24T07:24:20;8.50;93.20
45435;DHT22;31183;47.404;8.500;2023-02-24T07:26:59;8.60;93.30
45435;DHT22;31183;47.404;8.500;2023-02-24T07:29:28;8.60;93.00
45435;DHT22;31183;47.404;8.500;2023-02-24T07:32:00;8.70;92.90
45435;DHT22;31183;47.404;8.500;2023-02-24T07:34:29;8.80;92.70
45435;DHT22;31183;47.404;8.500;2023-02-24T07:36:56;8.90;92.50
45435;DHT22;31183;47.404;8.500;2023-02-24T07:39:24;8.90;92.50
45435;DHT22;31183;47.404;8.500;2023-02-24T07:41:52;9.10;92.40
45435;DHT22;31183;47.404;8.500;2023-02-24T07:44:21;9.40;92.00
45435;DHT22;31183;47.404;8.500;2023-02-24T07:46:50;9.70;91.60
45435;DHT22;31183;47.404;8.500;2023-02-24T07:49:22;9.90;91.30
45435;DHT22;31183;47.404;8.500;2023-02-24T07:51:52;10.10;90.80
45435;DHT22;31183;47.404;8.500;2023-02-24T07:54:24;10.30;90.50
45435;DHT22;31183;47.404;8.500;2023-02-24T07:56:52;10.50;89.80
45435;DHT22;31183;47.404;8.500;2023-02-24T07:59:25;10.60;89.70
45435;DHT22;31183;47.404;8.500;2023-02-24T08:01:52;10.80;89.50
45435;DHT22;31183;47.404;8.500;2023-02-24T08:04:26;11.00;88.80
45435;DHT22;31183;47.404;8.500;2023-02-24T08:06:54;11.10;88.30
45435;DHT22;31183;47.404;8.500;2023-02-24T08:09:32;11.10;87.20
45435;DHT22;31183;47.404;8.500;2023-02-24T08:12:16;11.20;87.40
45435;DHT22;31183;47.404;8.500;2023-02-24T08:14:45;11.40;86.80
45435;DHT22;31183;47.404;8.500;2023-02-24T08:17:23;11.60;86.40
45435;DHT22;31183;47.404;8.500;2023-02-24T08:19:52;11.80;85.40
45435;DHT22;31183;47.404;8.500;2023-02-24T08:22:42;12.00;84.50
45435;DHT22;31183;47.404;8.500;2023-02-24T08:25:14;12.20;83.40
45435;DHT22;31183;47.404;8.500;2023-02-24T08:27:46;12.40;82.20
45435;DHT22;31183;47.404;8.500;2023-02-24T08:30:34;12.70;81.70
45435;DHT22;31183;47.404;8.500;2023-02-24T08:33:07;13.20;80.60
45435;DHT22;31183;47.404;8.500;2023-02-24T08:35:37;13.50;78.50
45435;DHT22;31183;47.404;8.500;2023-02-24T08:38:15;14.10;78.00
45435;DHT22;31183;47.404;8.500;2023-02-24T08:40:50;14.50;76.90
45435;DHT22;31183;47.404;8.500;2023-02-24T08:46:00;15.60;72.60
45435;DHT22;31183;47.404;8.500;2023-02-24T08:48:32;16.10;71.70
45435;DHT22;31183;47.404;8.500;2023-02-24T08:51:21;16.50;69.60
45435;DHT22;31183;47.404;8.500;2023-02-24T08:53:51;16.80;67.50
45435;DHT22;31183;47.404;8.500;2023-02-24T08:56:23;17.10;67.40
45435;DHT22;31183;47.404;8.500;2023-02-24T08:58:56;17.30;65.70
45435;DHT22;31183;47.404;8.500;2023-02-24T09:01:28;17.30;65.90
45435;DHT22;31183;47.404;8.500;2023-02-24T09:04:06;17.30;65.40
45435;DHT22;31183;47.404;8.500;2023-02-24T09:06:44;17.30;64.20
45435;DHT22;31183;47.404;8.500;2023-02-24T09:09:17;17.30;64.90
45435;DHT22;31183;47.404;8.500;2023-02-24T09:11:49;17.60;63.50
45435;DHT22;31183;47.404;8.500;2023-02-24T09:14:24;18.10;63.30
45435;DHT22;31183;47.404;8.500;2023-02-24T09:16:58;18.60;62.00
45435;DHT22;31183;47.404;8.500;2023-02-24T09:19:38;19.10;60.90
45435;DHT22;31183;47.404;8.500;2023-02-24T09:22:20;19.50;59.30
45435;DHT22;31183;47.404;8.500;2023-02-24T09:25:09;19.70;58.70
45435;DHT22;31183;47.404;8.500;2023-02-24T09:27:54;19.80;58.00
45435;DHT22;31183;47.404;8.500;2023-02-24T09:30:35;19.90;57.70
45435;DHT22;31183;47.404;8.500;2023-02-24T09:33:14;19.80;57.50
45435;DHT22;31183;47.404;8.500;2023-02-24T09:36:02;19.80;57.30
45435;DHT22;31183;47.404;8.500;2023-02-24T09:38:50;19.60;58.40
45435;DHT22;31183;47.404;8.500;2023-02-24T09:41:48;19.90;58.60
45435;DHT22;31183;47.404;8.500;2023-02-24T09:44:33;20.20;57.70
45435;DHT22;31183;47.404;8.500;2023-02-24T09:49:48;20.20;57.70
45435;DHT22;31183;47.404;8.500;2023-02-24T09:52:17;20.20;58.10
45435;DHT22;31183;47.404;8.500;2023-02-24T09:54:48;20.30;57.60
45435;DHT22;31183;47.404;8.500;2023-02-24T09:57:45;20.40;57.30
45435;DHT22;31183;47.404;8.500;2023-02-24T10:00:32;20.60;57.40
45435;DHT22;31183;47.404;8.500;2023-02-24T10:03:10;20.90;56.80
45435;DHT22;31183;47.404;8.500;2023-02-24T10:05:58;20.90;56.00
45435;DHT22;31183;47.404;8.500;2023-02-24T10:08:41;20.80;55.40
45435;DHT22;31183;47.404;8.500;2023-02-24T10:11:11;20.70;55.80
45435;DHT22;31183;47.404;8.500;2023-02-24T10:13:50;20.50;56.90
45435;DHT22;31183;47.404;8.500;2023-02-24T10:16:21;20.60;56.90
45435;DHT22;31183;47.404;8.500;2023-02-24T10:19:03;20.80;55.90
45435;DHT22;31183;47.404;8.500;2023-02-24T10:22:04;20.80;55.50
45435;DHT22;31183;47.404;8.500;2023-02-24T10:24:50;20.90;55.60
45435;DHT22;31183;47.404;8.500;2023-02-24T10:27:32;21.00;55.40
45435;DHT22;31183;47.404;8.500;2023-02-24T10:30:10;21.10;55.20
45435;DHT22;31183;47.404;8.500;2023-02-24T10:32:53;21.00;55.40
45435;DHT22;31183;47.404;8.500;2023-02-24T10:35:26;21.10;55.00
45435;DHT22;31183;47.404;8.500;2023-02-24T10:38:00;21.10;55.20
45435;DHT22;31183;47.404;8.500;2023-02-24T10:40:44;21.10;55.30
45435;DHT22;31183;47.404;8.500;2023-02-24T10:43:17;21.00;55.30
45435;DHT22;31183;47.404;8.500;2023-02-24T10:45:45;21.00;55.40
45435;DHT22;31183;47.404;8.500;2023-02-24T10:48:21;20.70;56.60
45435;DHT22;31183;47.404;8.500;2023-02-24T10:51:14;20.90;55.90
45435;DHT22;31183;47.404;8.500;2023-02-24T10:54:05;20.80;56.20
45435;DHT22;31183;47.404;8.500;2023-02-24T10:56:49;20.60;56.30
45435;DHT22;31183;47.404;8.500;2023-02-24T10:59:50;20.40;57.20
45435;DHT22;31183;47.404;8.500;2023-02-24T11:02:37;20.20;57.90
45435;DHT22;31183;47.404;8.500;2023-02-24T11:05:37;20.00;57.50
45435;DHT22;31183;47.404;8.500;2023-02-24T11:08:17;19.70;58.90
45435;DHT22;31183;47.404;8.500;2023-02-24T11:14:00;19.00;59.70
45435;DHT22;31183;47.404;8.500;2023-02-24T11:19:48;18.50;60.90
45435;DHT22;31183;47.404;8.500;2023-02-24T11:22:20;18.20;61.70
45435;DHT22;31183;47.404;8.500;2023-02-24T11:24:48;17.90;62.40
45435;DHT22;31183;47.404;8.500;2023-02-24T11:27:17;17.70;63.60
45435;DHT22;31183;47.404;8.500;2023-02-24T11:30:11;17.70;64.00
45435;DHT22;31183;47.404;8.500;2023-02-24T11:32:47;17.80;63.40
45435;DHT22;31183;47.404;8.500;2023-02-24T11:41:18;17.60;64.70
45435;DHT22;31183;47.404;8.500;2023-02-24T11:43:56;17.60;64.40
45435;DHT22;31183;47.404;8.500;2023-02-24T11:46:37;17.40;64.90
45435;DHT22;31183;47.404;8.500;2023-02-24T11:51:47;17.50;65.10
45435;DHT22;31183;47.404;8.500;2023-02-24T11:54:15;17.50;62.90
45435;DHT22;31183;47.404;8.500;2023-02-24T11:56:46;17.40;63.40
45435;DHT22;31183;47.404;8.500;2023-02-24T11:59:37;17.30;63.30
45435;DHT22;31183;47.404;8.500;2023-02-24T12:05:13;17.20;62.80
45435;DHT22;31183;47.404;8.500;2023-02-24T12:07:49;17.10;62.80
45435;DHT22;31183;47.404;8.500;2023-02-24T12:10:26;17.00;62.60
45435;DHT22;31183;47.404;8.500;2023-02-24T12:16:10;16.90;62.70
45435;DHT22;31183;47.404;8.500;2023-02-24T12:18:57;17.00;62.60
45435;DHT22;31183;47.404;8.500;2023-02-24T12:21:33;16.90;62.30
45435;DHT22;31183;47.404;8.500;2023-02-24T12:24:01;16.80;62.80
45435;DHT22;31183;47.404;8.500;2023-02-24T12:27:14;16.80;62.80
45435;DHT22;31183;47.404;8.500;2023-02-24T12:30:02;16.80;62.50
45435;DHT22;31183;47.404;8.500;2023-02-24T12:32:55;16.80;63.10
45435;DHT22;31183;47.404;8.500;2023-02-24T12:35:48;16.80;63.50
45435;DHT22;31183;47.404;8.500;2023-02-24T12:44:14;16.70;62.90
45435;DHT22;31183;47.404;8.500;2023-02-24T12:46:50;16.70;62.80
45435;DHT22;31183;47.404;8.500;2023-02-24T12:52:01;16.70;63.20
45435;DHT22;31183;47.404;8.500;2023-02-24T12:54:44;16.80;62.90
45435;DHT22;31183;47.404;8.500;2023-02-24T13:05:42;17.20;63.10
45435;DHT22;31183;47.404;8.500;2023-02-24T13:08:19;17.30;62.30
45435;DHT22;31183;47.404;8.500;2023-02-24T13:13:55;17.20;62.60
45435;DHT22;31183;47.404;8.500;2023-02-24T13:16:34;17.20;62.60
45435;DHT22;31183;47.404;8.500;2023-02-24T13:19:27;17.10;62.30
45435;DHT22;31183;47.404;8.500;2023-02-24T13:25:09;17.00;62.40
45435;DHT22;31183;47.404;8.500;2023-02-24T13:27:40;16.90;63.30
45435;DHT22;31183;47.404;8.500;2023-02-24T13:32:44;16.80;62.40
45435;DHT22;31183;47.404;8.500;2023-02-24T13:37:43;16.70;62.90
45435;DHT22;31183;47.404;8.500;2023-02-24T13:48:16;16.70;63.70
45435;DHT22;31183;47.404;8.500;2023-02-24T13:56:36;16.60;63.60
45435;DHT22;31183;47.404;8.500;2023-02-24T13:59:31;16.60;63.50
45435;DHT22;31183;47.404;8.500;2023-02-24T14:02:14;16.70;64.70
45435;DHT22;31183;47.404;8.500;2023-02-24T14:04:52;16.70;64.20
45435;DHT22;31183;47.404;8.500;2023-02-24T14:07:26;16.70;64.00
45435;DHT22;31183;47.404;8.500;2023-02-24T14:09:58;16.70;63.30
45435;DHT22;31183;47.404;8.500;2023-02-24T14:12:30;16.70;63.60
45435;DHT22;31183;47.404;8.500;2023-02-24T14:14:58;16.70;63.20
45435;DHT22;31183;47.404;8.500;2023-02-24T14:17:31;16.60;62.80
45435;DHT22;31183;47.404;8.500;2023-02-24T14:20:18;16.40;63.10
45435;DHT22;31183;47.404;8.500;2023-02-24T14:22:48;16.30;63.70
45435;DHT22;31183;47.404;8.500;2023-02-24T14:25:15;16.20;63.60
45435;DHT22;31183;47.404;8.500;2023-02-24T14:27:45;16.10;64.10
45435;DHT22;31183;47.404;8.500;2023-02-24T14:32:53;15.90;64.10
45435;DHT22;31183;47.404;8.500;2023-02-24T14:35:27;15.90;64.70
45435;DHT22;31183;47.404;8.500;2023-02-24T14:37:56;16.00;64.90
45435;DHT22;31183;47.404;8.500;2023-02-24T14:40:23;16.10;65.10
45435;DHT22;31183;47.404;8.500;2023-02-24T14:42:52;16.10;64.80
45435;DHT22;31183;47.404;8.500;2023-02-24T14:45:23;16.10;64.50
45435;DHT22;31183;47.404;8.500;2023-02-24T14:47:52;16.10;64.70
45435;DHT22;31183;47.404;8.500;2023-02-24T14:50:29;16.10;64.90
45435;DHT22;31183;47.404;8.500;2023-02-24T14:55:28;16.10;63.50
45435;DHT22;31183;47.404;8.500;2023-02-24T15:03:04;15.90;63.40
45435;DHT22;31183;47.404;8.500;2023-02-24T15:05:31;15.90;63.10
45435;DHT22;31183;47.404;8.500;2023-02-24T15:08:00;15.90;63.10
45435;DHT22;31183;47.404;8.500;2023-02-24T15:10:29;15.80;63.80
45435;DHT22;31183;47.404;8.500;2023-02-24T15:13:21;15.90;63.70
45435;DHT22;31183;47.404;8.500;2023-02-24T15:15:50;15.90;64.00
45435;DHT22;31183;47.404;8.500;2023-02-24T15:18:26;15.90;64.10
45435;DHT22;31183;47.404;8.500;2023-02-24T15:21:04;16.00;63.80
45435;DHT22;31183;47.404;8.500;2023-02-24T15:23:37;15.90;64.10
45435;DHT22;31183;47.404;8.500;2023-02-24T15:26:06;16.00;64.10
45435;DHT22;31183;47.404;8.500;2023-02-24T15:28:36;16.00;63.50
45435;DHT22;31183;47.404;8.500;2023-02-24T15:31:17;15.90;63.40
45435;DHT22;31183;47.404;8.500;2023-02-24T15:33:52;15.90;63.50
45435;DHT22;31183;47.404;8.500;2023-02-24T15:36:21;15.80;64.10
45435;DHT22;31183;47.404;8.500;2023-02-24T15:38:52;15.70;64.50
45435;DHT22;31183;47.404;8.500;2023-02-24T15:41:19;15.70;64.90
45435;DHT22;31183;47.404;8.500;2023-02-24T15:48:50;15.50;65.10
45435;DHT22;31183;47.404;8.500;2023-02-24T15:51:36;15.40;65.40
45435;DHT22;31183;47.404;8.500;2023-02-24T15:54:06;15.40;65.70
45435;DHT22;31183;47.404;8.500;2023-02-24T15:56:34;15.40;65.20
45435;DHT22;31183;47.404;8.500;2023-02-24T15:59:01;15.30;65.60
45435;DHT22;31183;47.404;8.500;2023-02-24T16:01:29;15.10;65.90
45435;DHT22;31183;47.404;8.500;2023-02-24T16:03:56;15.00;66.90
45435;DHT22;31183;47.404;8.500;2023-02-24T16:06:23;14.80;67.40
45435;DHT22;31183;47.404;8.500;2023-02-24T16:08:51;14.70;67.80
45435;DHT22;31183;47.404;8.500;2023-02-24T16:11:21;14.60;68.50
45435;DHT22;31183;47.404;8.500;2023-02-24T16:13:54;14.60;68.90
45435;DHT22;31183;47.404;8.500;2023-02-24T16:16:21;14.30;69.50
45435;DHT22;31183;47.404;8.500;2023-02-24T16:18:49;14.20;69.90
45435;DHT22;31183;47.404;8.500;2023-02-24T16:21:16;14.20;70.30
45435;DHT22;31183;47.404;8.500;2023-02-24T16:23:43;14.10;69.90
45435;DHT22;31183;47.404;8.500;2023-02-24T16:26:15;14.10;70.40
45435;DHT22;31183;47.404;8.500;2023-02-24T16:28:45;14.00;70.20
45435;DHT22;31183;47.404;8.500;2023-02-24T16:31:13;14.00;70.50
45435;DHT22;31183;47.404;8.500;2023-02-24T16:33:40;13.90;70.50
45435;DHT22;31183;47.404;8.500;2023-02-24T16:36:21;13.90;71.20
45435;DHT22;31183;47.404;8.500;2023-02-24T16:38:49;13.80;70.40
45435;DHT22;31183;47.404;8.500;2023-02-24T16:41:17;13.80;70.40
45435;DHT22;31183;47.404;8.500;2023-02-24T16:43:44;13.70;70.80
45435;DHT22;31183;47.404;8.500;2023-02-24T16:46:16;13.70;70.80
45435;DHT22;31183;47.404;8.500;2023-02-24T16:48:47;13.70;71.20
45435;DHT22;31183;47.404;8.500;2023-02-24T16:51:15;13.60;71.40
45435;DHT22;31183;47.404;8.500;2023-02-24T16:53:42;13.50;72.10
45435;DHT22;31183;47.404;8.500;2023-02-24T16:56:09;13.50;72.80
45435;DHT22;31183;47.404;8.500;2023-02-24T16:58:37;13.50;73.10
45435;DHT22;31183;47.404;8.500;2023-02-24T17:01:04;13.40;72.90
45435;DHT22;31183;47.404;8.500;2023-02-24T17:03:42;13.40;73.20
45435;DHT22;31183;47.404;8.500;2023-02-24T17:06:09;13.30;73.80
45435;DHT22;31183;47.404;8.500;2023-02-24T17:08:36;13.30;73.70
45435;DHT22;31183;47.404;8.500;2023-02-24T17:11:03;13.30;74.50
45435;DHT22;31183;47.404;8.500;2023-02-24T17:13:29;13.30;74.20
45435;DHT22;31183;47.404;8.500;2023-02-24T17:15:56;13.30;74.40
45435;DHT22;31183;47.404;8.500;2023-02-24T17:18:24;13.30;74.70
45435;DHT22;31183;47.404;8.500;2023-02-24T17:20:52;13.30;75.00
45435;DHT22;31183;47.404;8.500;2023-02-24T17:23:18;13.20;74.80
45435;DHT22;31183;47.404;8.500;2023-02-24T17:25:51;13.20;75.30
45435;DHT22;31183;47.404;8.500;2023-02-24T17:28:19;13.20;75.70
45435;DHT22;31183;47.404;8.500;2023-02-24T17:30:45;13.20;75.30
45435;DHT22;31183;47.404;8.500;2023-02-24T17:33:12;13.10;75.60
45435;DHT22;31183;47.404;8.500;2023-02-24T17:35:41;13.10;75.80
45435;DHT22;31183;47.404;8.500;2023-02-24T17:38:15;13.00;76.30
45435;DHT22;31183;47.404;8.500;2023-02-24T17:40:43;13.00;76.40
45435;DHT22;31183;47.404;8.500;2023-02-24T17:43:10;13.00;76.80
45435;DHT22;31183;47.404;8.500;2023-02-24T17:45:39;13.00;76.70
45435;DHT22;31183;47.404;8.500;2023-02-24T17:48:08;13.00;76.90
45435;DHT22;31183;47.404;8.500;2023-02-24T17:50:35;13.00;76.90
45435;DHT22;31183;47.404;8.500;2023-02-24T17:53:02;13.00;77.10
45435;DHT22;31183;47.404;8.500;2023-02-24T17:55:29;13.00;77.30
45435;DHT22;31183;47.404;8.500;2023-02-24T17:57:55;13.00;77.70
45435;DHT22;31183;47.404;8.500;2023-02-24T18:00:24;12.90;77.50
45435;DHT22;31183;47.404;8.500;2023-02-24T18:02:52;13.00;77.60
45435;DHT22;31183;47.404;8.500;2023-02-24T18:05:19;12.90;78.20
45435;DHT22;31183;47.404;8.500;2023-02-24T18:07:46;13.00;77.80
45435;DHT22;31183;47.404;8.500;2023-02-24T18:10:12;12.90;77.70